sensor_id;sensor_type;location;lat;lon;timestamp;P1;durP1;ratioP1;P2;durP2;ratioP2
77010;SDS011;65945;53.148;17.956;2023-03-23T00:00:01;29.40;;;18.00;;
77010;SDS011;65945;53.148;17.956;2023-03-23T00:02:57;30.50;;;18.00;;
77010;SDS011;65945;53.148;17.956;2023-03-23T00:05:23;34.70;;;18.40;;
77010;SDS011;65945;53.148;17.956;2023-03-23T00:07:50;32.60;;;18.70;;
77010;SDS011;65945;53.148;17.956;2023-03-23T00:10:18;30.60;;;18.00;;
77010;SDS011;65945;53.148;17.956;2023-03-23T00:12:44;34.50;;;18.70;;
77010;SDS011;65945;53.148;17.956;2023-03-23T00:15:15;29.60;;;18.00;;
77010;SDS011;65945;53.148;17.956;2023-03-23T00:17:43;27.80;;;16.90;;
77010;SDS011;65945;53.148;17.956;2023-03-23T00:20:09;27.90;;;17.60;;
77010;SDS011;65945;53.148;17.956;2023-03-23T00:22:38;31.70;;;17.50;;
77010;SDS011;65945;53.148;17.956;2023-03-23T00:25:05;26.00;;;16.90;;
77010;SDS011;65945;53.148;17.956;2023-03-23T00:27:32;27.40;;;15.60;;
77010;SDS011;65945;53.148;17.956;2023-03-23T00:29:58;25.40;;;16.00;;
77010;SDS011;65945;53.148;17.956;2023-03-23T00:32:25;27.50;;;16.20;;
77010;SDS011;65945;53.148;17.956;2023-03-23T00:34:56;27.80;;;14.80;;
77010;SDS011;65945;53.148;17.956;2023-03-23T00:37:27;26.30;;;15.00;;
77010;SDS011;65945;53.148;17.956;2023-03-23T00:39:53;25.80;;;15.50;;
77010;SDS011;65945;53.148;17.956;2023-03-23T00:42:23;27.30;;;15.40;;
77010;SDS011;65945;53.148;17.956;2023-03-23T00:44:51;24.20;;;14.10;;
77010;SDS011;65945;53.148;17.956;2023-03-23T00:47:26;22.20;;;13.20;;
77010;SDS011;65945;53.148;17.956;2023-03-23T00:49:53;26.40;;;12.90;;
77010;SDS011;65945;53.148;17.956;2023-03-23T00:52:22;28.10;;;16.00;;
77010;SDS011;65945;53.148;17.956;2023-03-23T00:54:49;29.40;;;16.80;;
77010;SDS011;65945;53.148;17.956;2023-03-23T00:57:16;31.60;;;17.60;;
77010;SDS011;65945;53.148;17.956;2023-03-23T00:59:43;30.70;;;19.10;;
77010;SDS011;65945;53.148;17.956;2023-03-23T01:02:10;37.60;;;20.30;;
77010;SDS011;65945;53.148;17.956;2023-03-23T01:04:40;42.30;;;22.60;;
77010;SDS011;65945;53.148;17.956;2023-03-23T01:07:11;45.80;;;29.30;;
77010;SDS011;65945;53.148;17.956;2023-03-23T01:09:40;47.10;;;27.30;;
77010;SDS011;65945;53.148;17.956;2023-03-23T01:12:12;47.20;;;25.80;;
77010;SDS011;65945;53.148;17.956;2023-03-23T01:14:38;50.60;;;27.60;;
77010;SDS011;65945;53.148;17.956;2023-03-23T01:17:07;50.60;;;27.80;;
77010;SDS011;65945;53.148;17.956;2023-03-23T01:19:35;54.50;;;29.80;;
77010;SDS011;65945;53.148;17.956;2023-03-23T01:22:01;49.90;;;28.00;;
77010;SDS011;65945;53.148;17.956;2023-03-23T01:24:28;45.70;;;23.90;;
77010;SDS011;65945;53.148;17.956;2023-03-23T01:26:54;43.60;;;24.20;;
77010;SDS011;65945;53.148;17.956;2023-03-23T01:29:22;49.60;;;26.20;;
77010;SDS011;65945;53.148;17.956;2023-03-23T01:31:49;56.80;;;30.80;;
77010;SDS011;65945;53.148;17.956;2023-03-23T01:34:16;54.20;;;29.00;;
77010;SDS011;65945;53.148;17.956;2023-03-23T01:36:43;66.10;;;31.70;;
77010;SDS011;65945;53.148;17.956;2023-03-23T01:39:10;63.80;;;31.80;;
77010;SDS011;65945;53.148;17.956;2023-03-23T01:41:37;64.10;;;31.30;;
77010;SDS011;65945;53.148;17.956;2023-03-23T01:46:54;77.10;;;35.40;;
77010;SDS011;65945;53.148;17.956;2023-03-23T01:49:22;81.70;;;37.10;;
77010;SDS011;65945;53.148;17.956;2023-03-23T01:51:53;70.10;;;34.30;;
77010;SDS011;65945;53.148;17.956;2023-03-23T01:54:27;68.20;;;30.90;;
77010;SDS011;65945;53.148;17.956;2023-03-23T01:56:57;54.50;;;27.90;;
77010;SDS011;65945;53.148;17.956;2023-03-23T01:59:28;54.00;;;28.60;;
77010;SDS011;65945;53.148;17.956;2023-03-23T02:02:15;46.40;;;25.80;;
77010;SDS011;65945;53.148;17.956;2023-03-23T02:04:43;46.10;;;23.90;;
77010;SDS011;65945;53.148;17.956;2023-03-23T02:07:10;58.20;;;29.60;;
77010;SDS011;65945;53.148;17.956;2023-03-23T02:09:40;86.30;;;37.00;;
77010;SDS011;65945;53.148;17.956;2023-03-23T02:12:08;98.90;;;42.00;;
77010;SDS011;65945;53.148;17.956;2023-03-23T02:14:36;76.20;;;38.80;;
77010;SDS011;65945;53.148;17.956;2023-03-23T02:22:32;89.30;;;42.00;;
77010;SDS011;65945;53.148;17.956;2023-03-23T02:36:59;55.50;;;27.60;;
77010;SDS011;65945;53.148;17.956;2023-03-23T02:40:14;45.50;;;23.10;;
77010;SDS011;65945;53.148;17.956;2023-03-23T02:42:26;51.30;;;26.90;;
77010;SDS011;65945;53.148;17.956;2023-03-23T02:44:58;55.00;;;28.50;;
77010;SDS011;65945;53.148;17.956;2023-03-23T02:47:29;63.60;;;31.40;;
77010;SDS011;65945;53.148;17.956;2023-03-23T02:49:59;63.70;;;32.40;;
77010;SDS011;65945;53.148;17.956;2023-03-23T02:52:27;73.20;;;36.20;;
77010;SDS011;65945;53.148;17.956;2023-03-23T02:54:57;79.80;;;41.30;;
77010;SDS011;65945;53.148;17.956;2023-03-23T02:57:25;85.90;;;51.00;;
77010;SDS011;65945;53.148;17.956;2023-03-23T02:59:55;80.10;;;41.20;;
77010;SDS011;65945;53.148;17.956;2023-03-23T03:07:37;66.60;;;33.10;;
77010;SDS011;65945;53.148;17.956;2023-03-23T03:10:28;61.70;;;31.00;;
77010;SDS011;65945;53.148;17.956;2023-03-23T03:15:35;54.10;;;28.00;;
77010;SDS011;65945;53.148;17.956;2023-03-23T03:18:18;57.90;;;28.60;;
77010;SDS011;65945;53.148;17.956;2023-03-23T03:20:50;59.80;;;29.40;;
77010;SDS011;65945;53.148;17.956;2023-03-23T03:23:22;61.10;;;30.70;;
77010;SDS011;65945;53.148;17.956;2023-03-23T03:25:51;54.90;;;28.90;;
77010;SDS011;65945;53.148;17.956;2023-03-23T03:28:27;60.90;;;29.70;;
77010;SDS011;65945;53.148;17.956;2023-03-23T03:30:55;59.30;;;30.80;;
77010;SDS011;65945;53.148;17.956;2023-03-23T03:33:27;50.20;;;27.10;;
77010;SDS011;65945;53.148;17.956;2023-03-23T03:35:58;56.00;;;29.10;;
77010;SDS011;65945;53.148;17.956;2023-03-23T03:38:27;59.50;;;29.30;;
77010;SDS011;65945;53.148;17.956;2023-03-23T03:40:56;53.20;;;28.10;;
77010;SDS011;65945;53.148;17.956;2023-03-23T03:43:23;52.20;;;27.20;;
77010;SDS011;65945;53.148;17.956;2023-03-23T03:45:50;45.90;;;23.60;;
77010;SDS011;65945;53.148;17.956;2023-03-23T03:48:17;64.40;;;29.00;;
77010;SDS011;65945;53.148;17.956;2023-03-23T03:50:43;51.20;;;27.40;;
77010;SDS011;65945;53.148;17.956;2023-03-23T03:53:10;50.70;;;27.10;;
77010;SDS011;65945;53.148;17.956;2023-03-23T03:55:37;50.40;;;27.80;;
77010;SDS011;65945;53.148;17.956;2023-03-23T03:58:06;47.90;;;26.00;;
77010;SDS011;65945;53.148;17.956;2023-03-23T04:00:54;49.20;;;24.80;;
77010;SDS011;65945;53.148;17.956;2023-03-23T04:03:24;46.50;;;25.60;;
77010;SDS011;65945;53.148;17.956;2023-03-23T04:06:06;45.90;;;25.20;;
77010;SDS011;65945;53.148;17.956;2023-03-23T04:08:39;42.80;;;24.60;;
77010;SDS011;65945;53.148;17.956;2023-03-23T04:11:08;52.90;;;27.00;;
77010;SDS011;65945;53.148;17.956;2023-03-23T04:13:36;42.30;;;25.20;;
77010;SDS011;65945;53.148;17.956;2023-03-23T04:16:08;50.20;;;25.80;;
77010;SDS011;65945;53.148;17.956;2023-03-23T04:18:35;49.40;;;27.60;;
77010;SDS011;65945;53.148;17.956;2023-03-23T04:21:02;45.90;;;27.40;;
77010;SDS011;65945;53.148;17.956;2023-03-23T04:23:30;52.30;;;27.40;;
77010;SDS011;65945;53.148;17.956;2023-03-23T04:26:01;45.00;;;25.40;;
77010;SDS011;65945;53.148;17.956;2023-03-23T04:28:35;49.90;;;26.80;;
77010;SDS011;65945;53.148;17.956;2023-03-23T04:31:20;47.70;;;26.00;;
77010;SDS011;65945;53.148;17.956;2023-03-23T04:33:51;41.30;;;24.10;;
77010;SDS011;65945;53.148;17.956;2023-03-23T04:36:20;46.10;;;24.00;;
77010;SDS011;65945;53.148;17.956;2023-03-23T04:38:57;42.40;;;23.80;;
77010;SDS011;65945;53.148;17.956;2023-03-23T04:41:24;42.80;;;23.80;;
77010;SDS011;65945;53.148;17.956;2023-03-23T04:44:09;39.80;;;22.40;;
77010;SDS011;65945;53.148;17.956;2023-03-23T04:46:43;35.50;;;21.20;;
77010;SDS011;65945;53.148;17.956;2023-03-23T04:49:13;39.60;;;21.40;;
77010;SDS011;65945;53.148;17.956;2023-03-23T04:51:41;38.50;;;21.90;;
77010;SDS011;65945;53.148;17.956;2023-03-23T04:54:15;30.90;;;18.30;;
77010;SDS011;65945;53.148;17.956;2023-03-23T04:56:43;34.50;;;19.60;;
77010;SDS011;65945;53.148;17.956;2023-03-23T04:59:13;40.40;;;21.90;;
77010;SDS011;65945;53.148;17.956;2023-03-23T05:02:06;32.70;;;18.00;;
77010;SDS011;65945;53.148;17.956;2023-03-23T05:04:34;37.70;;;20.40;;
77010;SDS011;65945;53.148;17.956;2023-03-23T05:07:05;30.50;;;18.60;;
77010;SDS011;65945;53.148;17.956;2023-03-23T05:09:34;33.40;;;19.50;;
77010;SDS011;65945;53.148;17.956;2023-03-23T05:12:05;34.10;;;17.90;;
77010;SDS011;65945;53.148;17.956;2023-03-23T05:14:35;30.60;;;15.40;;
77010;SDS011;65945;53.148;17.956;2023-03-23T05:17:08;30.20;;;16.40;;
77010;SDS011;65945;53.148;17.956;2023-03-23T05:19:35;29.80;;;18.80;;
77010;SDS011;65945;53.148;17.956;2023-03-23T05:22:07;33.60;;;18.70;;
77010;SDS011;65945;53.148;17.956;2023-03-23T05:24:43;30.60;;;16.70;;
77010;SDS011;65945;53.148;17.956;2023-03-23T05:27:10;30.70;;;16.50;;
77010;SDS011;65945;53.148;17.956;2023-03-23T05:29:39;32.90;;;18.50;;
77010;SDS011;65945;53.148;17.956;2023-03-23T05:32:07;28.10;;;17.10;;
77010;SDS011;65945;53.148;17.956;2023-03-23T05:34:35;35.40;;;18.80;;
77010;SDS011;65945;53.148;17.956;2023-03-23T05:37:02;29.00;;;17.50;;
77010;SDS011;65945;53.148;17.956;2023-03-23T05:39:46;28.50;;;17.50;;
77010;SDS011;65945;53.148;17.956;2023-03-23T05:42:29;31.40;;;17.50;;
77010;SDS011;65945;53.148;17.956;2023-03-23T05:45:03;38.00;;;19.00;;
77010;SDS011;65945;53.148;17.956;2023-03-23T05:47:31;31.90;;;18.10;;
77010;SDS011;65945;53.148;17.956;2023-03-23T05:50:03;32.50;;;20.30;;
77010;SDS011;65945;53.148;17.956;2023-03-23T05:52:33;32.30;;;20.20;;
77010;SDS011;65945;53.148;17.956;2023-03-23T05:55:03;31.30;;;19.70;;
77010;SDS011;65945;53.148;17.956;2023-03-23T05:57:32;33.30;;;19.90;;
77010;SDS011;65945;53.148;17.956;2023-03-23T06:00:05;32.90;;;21.60;;
77010;SDS011;65945;53.148;17.956;2023-03-23T06:02:47;27.70;;;17.40;;
77010;SDS011;65945;53.148;17.956;2023-03-23T06:05:18;30.90;;;17.50;;
77010;SDS011;65945;53.148;17.956;2023-03-23T06:07:49;26.30;;;15.60;;
77010;SDS011;65945;53.148;17.956;2023-03-23T06:10:16;25.90;;;14.20;;
77010;SDS011;65945;53.148;17.956;2023-03-23T06:12:46;33.10;;;14.80;;
77010;SDS011;65945;53.148;17.956;2023-03-23T06:15:27;28.00;;;11.10;;
77010;SDS011;65945;53.148;17.956;2023-03-23T06:18:01;22.40;;;11.60;;
77010;SDS011;65945;53.148;17.956;2023-03-23T06:20:52;16.60;;;9.20;;
77010;SDS011;65945;53.148;17.956;2023-03-23T06:23:30;20.20;;;9.60;;
77010;SDS011;65945;53.148;17.956;2023-03-23T06:25:57;24.10;;;11.70;;
77010;SDS011;65945;53.148;17.956;2023-03-23T06:28:26;21.30;;;8.70;;
77010;SDS011;65945;53.148;17.956;2023-03-23T06:30:53;18.80;;;9.10;;
77010;SDS011;65945;53.148;17.956;2023-03-23T06:33:20;15.30;;;8.20;;
77010;SDS011;65945;53.148;17.956;2023-03-23T06:36:11;16.20;;;8.20;;
77010;SDS011;65945;53.148;17.956;2023-03-23T06:38:49;14.70;;;7.40;;
77010;SDS011;65945;53.148;17.956;2023-03-23T06:41:19;18.00;;;9.00;;
77010;SDS011;65945;53.148;17.956;2023-03-23T06:43:46;16.60;;;7.80;;
77010;SDS011;65945;53.148;17.956;2023-03-23T06:46:15;14.20;;;7.90;;
77010;SDS011;65945;53.148;17.956;2023-03-23T06:48:42;17.50;;;8.00;;
77010;SDS011;65945;53.148;17.956;2023-03-23T06:51:11;20.00;;;7.90;;
77010;SDS011;65945;53.148;17.956;2023-03-23T06:53:39;17.30;;;6.80;;
77010;SDS011;65945;53.148;17.956;2023-03-23T06:56:06;15.40;;;6.30;;
77010;SDS011;65945;53.148;17.956;2023-03-23T06:58:34;21.00;;;7.80;;
77010;SDS011;65945;53.148;17.956;2023-03-23T07:01:01;21.40;;;8.60;;
77010;SDS011;65945;53.148;17.956;2023-03-23T07:03:38;19.70;;;6.00;;
77010;SDS011;65945;53.148;17.956;2023-03-23T07:06:09;14.40;;;6.00;;
77010;SDS011;65945;53.148;17.956;2023-03-23T07:08:41;10.50;;;5.20;;
77010;SDS011;65945;53.148;17.956;2023-03-23T07:11:12;12.30;;;5.40;;
77010;SDS011;65945;53.148;17.956;2023-03-23T07:13:39;13.20;;;5.40;;
77010;SDS011;65945;53.148;17.956;2023-03-23T07:16:07;28.50;;;9.20;;
77010;SDS011;65945;53.148;17.956;2023-03-23T07:18:34;15.70;;;6.80;;
77010;SDS011;65945;53.148;17.956;2023-03-23T07:21:03;14.20;;;5.60;;
77010;SDS011;65945;53.148;17.956;2023-03-23T07:23:31;13.40;;;5.40;;
77010;SDS011;65945;53.148;17.956;2023-03-23T07:26:01;10.70;;;4.50;;
77010;SDS011;65945;53.148;17.956;2023-03-23T07:28:34;13.50;;;4.50;;
77010;SDS011;65945;53.148;17.956;2023-03-23T07:31:06;13.20;;;7.20;;
77010;SDS011;65945;53.148;17.956;2023-03-23T07:33:35;12.20;;;5.50;;
77010;SDS011;65945;53.148;17.956;2023-03-23T07:36:02;8.20;;;4.40;;
77010;SDS011;65945;53.148;17.956;2023-03-23T07:38:29;8.90;;;4.60;;
77010;SDS011;65945;53.148;17.956;2023-03-23T07:40:58;6.50;;;3.80;;
77010;SDS011;65945;53.148;17.956;2023-03-23T07:43:24;7.50;;;3.80;;
77010;SDS011;65945;53.148;17.956;2023-03-23T07:46:10;9.60;;;4.30;;
77010;SDS011;65945;53.148;17.956;2023-03-23T07:48:54;9.90;;;3.70;;
77010;SDS011;65945;53.148;17.956;2023-03-23T07:51:24;9.60;;;4.20;;
77010;SDS011;65945;53.148;17.956;2023-03-23T07:53:51;7.60;;;3.60;;
77010;SDS011;65945;53.148;17.956;2023-03-23T07:56:44;6.10;;;3.00;;
77010;SDS011;65945;53.148;17.956;2023-03-23T07:59:26;10.50;;;3.50;;
77010;SDS011;65945;53.148;17.956;2023-03-23T08:01:53;6.50;;;3.30;;
77010;SDS011;65945;53.148;17.956;2023-03-23T08:04:43;7.60;;;3.70;;
77010;SDS011;65945;53.148;17.956;2023-03-23T08:07:29;7.60;;;3.70;;
77010;SDS011;65945;53.148;17.956;2023-03-23T08:10:04;7.50;;;4.20;;
77010;SDS011;65945;53.148;17.956;2023-03-23T08:12:41;6.00;;;2.70;;
77010;SDS011;65945;53.148;17.956;2023-03-23T08:15:09;8.50;;;3.70;;
77010;SDS011;65945;53.148;17.956;2023-03-23T08:17:58;10.70;;;3.40;;
77010;SDS011;65945;53.148;17.956;2023-03-23T08:20:43;6.10;;;2.30;;
77010;SDS011;65945;53.148;17.956;2023-03-23T08:23:27;6.50;;;2.60;;
77010;SDS011;65945;53.148;17.956;2023-03-23T08:26:16;5.80;;;2.20;;
77010;SDS011;65945;53.148;17.956;2023-03-23T08:29:02;8.50;;;2.40;;
77010;SDS011;65945;53.148;17.956;2023-03-23T08:31:45;7.30;;;2.30;;
77010;SDS011;65945;53.148;17.956;2023-03-23T08:34:45;6.90;;;3.10;;
77010;SDS011;65945;53.148;17.956;2023-03-23T08:37:35;4.40;;;2.20;;
77010;SDS011;65945;53.148;17.956;2023-03-23T08:40:14;7.00;;;2.30;;
77010;SDS011;65945;53.148;17.956;2023-03-23T08:43:14;7.10;;;2.50;;
77010;SDS011;65945;53.148;17.956;2023-03-23T08:46:00;3.80;;;2.00;;
77010;SDS011;65945;53.148;17.956;2023-03-23T08:48:53;4.90;;;1.90;;
77010;SDS011;65945;53.148;17.956;2023-03-23T08:51:39;3.60;;;1.80;;
77010;SDS011;65945;53.148;17.956;2023-03-23T08:54:16;6.30;;;2.10;;
77010;SDS011;65945;53.148;17.956;2023-03-23T08:56:59;21.70;;;2.70;;
77010;SDS011;65945;53.148;17.956;2023-03-23T08:59:46;3.40;;;1.70;;
77010;SDS011;65945;53.148;17.956;2023-03-23T09:02:18;5.10;;;1.90;;
77010;SDS011;65945;53.148;17.956;2023-03-23T09:05:05;5.10;;;2.10;;
77010;SDS011;65945;53.148;17.956;2023-03-23T09:07:44;6.10;;;1.90;;
77010;SDS011;65945;53.148;17.956;2023-03-23T09:10:14;3.60;;;1.50;;
77010;SDS011;65945;53.148;17.956;2023-03-23T09:12:41;3.10;;;1.50;;
77010;SDS011;65945;53.148;17.956;2023-03-23T09:15:09;2.70;;;1.60;;
77010;SDS011;65945;53.148;17.956;2023-03-23T09:17:39;5.20;;;1.70;;
77010;SDS011;65945;53.148;17.956;2023-03-23T09:20:09;5.90;;;2.10;;
77010;SDS011;65945;53.148;17.956;2023-03-23T09:22:43;4.50;;;1.40;;
77010;SDS011;65945;53.148;17.956;2023-03-23T09:25:13;4.70;;;1.90;;
77010;SDS011;65945;53.148;17.956;2023-03-23T09:27:41;5.20;;;1.80;;
77010;SDS011;65945;53.148;17.956;2023-03-23T09:30:10;3.90;;;1.60;;
77010;SDS011;65945;53.148;17.956;2023-03-23T09:32:38;4.90;;;1.90;;
77010;SDS011;65945;53.148;17.956;2023-03-23T09:35:07;5.10;;;1.90;;
77010;SDS011;65945;53.148;17.956;2023-03-23T09:37:36;6.10;;;2.10;;
77010;SDS011;65945;53.148;17.956;2023-03-23T09:40:03;4.30;;;2.00;;
77010;SDS011;65945;53.148;17.956;2023-03-23T09:50:55;7.30;;;3.00;;
77010;SDS011;65945;53.148;17.956;2023-03-23T09:53:33;5.80;;;2.20;;
77010;SDS011;65945;53.148;17.956;2023-03-23T09:56:08;3.40;;;1.80;;
77010;SDS011;65945;53.148;17.956;2023-03-23T10:01:28;5.00;;;2.00;;
77010;SDS011;65945;53.148;17.956;2023-03-23T10:04:09;5.50;;;2.00;;
77010;SDS011;65945;53.148;17.956;2023-03-23T10:06:42;6.40;;;2.40;;
77010;SDS011;65945;53.148;17.956;2023-03-23T10:09:12;3.40;;;1.90;;
77010;SDS011;65945;53.148;17.956;2023-03-23T10:17:28;5.60;;;2.10;;
77010;SDS011;65945;53.148;17.956;2023-03-23T10:22:43;4.20;;;2.00;;
77010;SDS011;65945;53.148;17.956;2023-03-23T10:25:18;4.90;;;2.10;;
77010;SDS011;65945;53.148;17.956;2023-03-23T10:30:38;4.10;;;2.10;;
77010;SDS011;65945;53.148;17.956;2023-03-23T10:36:11;5.60;;;2.20;;
77010;SDS011;65945;53.148;17.956;2023-03-23T10:41:42;4.80;;;2.30;;
77010;SDS011;65945;53.148;17.956;2023-03-23T10:44:27;6.50;;;2.50;;
77010;SDS011;65945;53.148;17.956;2023-03-23T10:46:59;4.10;;;1.90;;
77010;SDS011;65945;53.148;17.956;2023-03-23T10:49:39;5.50;;;2.50;;
77010;SDS011;65945;53.148;17.956;2023-03-23T10:55:10;6.00;;;2.30;;
77010;SDS011;65945;53.148;17.956;2023-03-23T10:57:42;8.00;;;3.70;;
77010;SDS011;65945;53.148;17.956;2023-03-23T11:02:42;6.40;;;2.90;;
77010;SDS011;65945;53.148;17.956;2023-03-23T11:05:16;8.60;;;3.80;;
77010;SDS011;65945;53.148;17.956;2023-03-23T11:07:48;8.00;;;3.10;;
77010;SDS011;65945;53.148;17.956;2023-03-23T11:10:26;8.00;;;3.70;;
77010;SDS011;65945;53.148;17.956;2023-03-23T11:12:58;17.70;;;10.70;;
77010;SDS011;65945;53.148;17.956;2023-03-23T11:15:34;10.90;;;5.00;;
77010;SDS011;65945;53.148;17.956;2023-03-23T11:18:35;8.70;;;3.70;;
77010;SDS011;65945;53.148;17.956;2023-03-23T11:21:02;4.20;;;2.50;;
77010;SDS011;65945;53.148;17.956;2023-03-23T11:26:19;7.20;;;3.10;;
77010;SDS011;65945;53.148;17.956;2023-03-23T11:31:24;7.20;;;2.50;;
77010;SDS011;65945;53.148;17.956;2023-03-23T11:33:57;5.60;;;2.60;;
77010;SDS011;65945;53.148;17.956;2023-03-23T11:36:33;6.60;;;3.20;;
77010;SDS011;65945;53.148;17.956;2023-03-23T11:39:03;8.00;;;2.50;;
77010;SDS011;65945;53.148;17.956;2023-03-23T11:41:45;4.40;;;1.90;;
77010;SDS011;65945;53.148;17.956;2023-03-23T11:44:12;6.60;;;3.30;;
77010;SDS011;65945;53.148;17.956;2023-03-23T11:49:10;5.40;;;2.60;;
77010;SDS011;65945;53.148;17.956;2023-03-23T11:51:46;5.30;;;2.10;;
77010;SDS011;65945;53.148;17.956;2023-03-23T11:54:33;8.60;;;2.60;;
77010;SDS011;65945;53.148;17.956;2023-03-23T11:57:09;7.10;;;2.60;;
77010;SDS011;65945;53.148;17.956;2023-03-23T11:59:38;11.30;;;4.80;;
77010;SDS011;65945;53.148;17.956;2023-03-23T12:08:03;4.90;;;2.70;;
77010;SDS011;65945;53.148;17.956;2023-03-23T12:10:58;3.30;;;2.20;;
77010;SDS011;65945;53.148;17.956;2023-03-23T12:13:52;5.60;;;2.40;;
77010;SDS011;65945;53.148;17.956;2023-03-23T12:16:49;10.50;;;3.70;;
77010;SDS011;65945;53.148;17.956;2023-03-23T12:35:49;4.00;;;1.80;;
77010;SDS011;65945;53.148;17.956;2023-03-23T12:38:23;4.80;;;2.30;;
77010;SDS011;65945;53.148;17.956;2023-03-23T12:43:51;8.00;;;2.20;;
77010;SDS011;65945;53.148;17.956;2023-03-23T12:49:20;8.80;;;5.00;;
77010;SDS011;65945;53.148;17.956;2023-03-23T12:54:42;6.40;;;2.50;;
77010;SDS011;65945;53.148;17.956;2023-03-23T12:57:54;4.00;;;2.10;;
77010;SDS011;65945;53.148;17.956;2023-03-23T13:05:42;6.20;;;2.80;;
77010;SDS011;65945;53.148;17.956;2023-03-23T13:08:31;5.70;;;2.40;;
77010;SDS011;65945;53.148;17.956;2023-03-23T13:11:04;7.30;;;2.60;;
77010;SDS011;65945;53.148;17.956;2023-03-23T13:13:43;5.60;;;2.10;;
77010;SDS011;65945;53.148;17.956;2023-03-23T13:16:33;9.80;;;3.60;;
77010;SDS011;65945;53.148;17.956;2023-03-23T13:21:40;5.10;;;2.20;;
77010;SDS011;65945;53.148;17.956;2023-03-23T13:24:13;7.90;;;3.30;;
77010;SDS011;65945;53.148;17.956;2023-03-23T13:26:44;12.90;;;3.90;;
77010;SDS011;65945;53.148;17.956;2023-03-23T13:29:18;6.00;;;1.90;;
77010;SDS011;65945;53.148;17.956;2023-03-23T13:31:46;6.40;;;2.40;;
77010;SDS011;65945;53.148;17.956;2023-03-23T13:36:59;7.40;;;3.10;;
77010;SDS011;65945;53.148;17.956;2023-03-23T13:39:37;4.20;;;2.20;;
77010;SDS011;65945;53.148;17.956;2023-03-23T13:47:22;6.30;;;3.30;;
77010;SDS011;65945;53.148;17.956;2023-03-23T13:49:57;8.70;;;4.00;;
77010;SDS011;65945;53.148;17.956;2023-03-23T14:10:58;10.20;;;3.70;;
77010;SDS011;65945;53.148;17.956;2023-03-23T14:13:35;7.90;;;3.60;;
77010;SDS011;65945;53.148;17.956;2023-03-23T14:16:19;8.50;;;3.60;;
77010;SDS011;65945;53.148;17.956;2023-03-23T14:18:51;5.30;;;2.70;;
77010;SDS011;65945;53.148;17.956;2023-03-23T14:21:25;5.70;;;2.20;;
77010;SDS011;65945;53.148;17.956;2023-03-23T14:24:09;9.40;;;4.60;;
77010;SDS011;65945;53.148;17.956;2023-03-23T14:26:37;11.20;;;5.60;;
77010;SDS011;65945;53.148;17.956;2023-03-23T14:29:05;6.50;;;2.90;;
77010;SDS011;65945;53.148;17.956;2023-03-23T14:31:32;10.50;;;4.70;;
77010;SDS011;65945;53.148;17.956;2023-03-23T14:34:02;8.80;;;4.30;;
77010;SDS011;65945;53.148;17.956;2023-03-23T14:36:33;9.20;;;4.50;;
77010;SDS011;65945;53.148;17.956;2023-03-23T14:41:51;7.30;;;3.80;;
77010;SDS011;65945;53.148;17.956;2023-03-23T14:44:25;16.40;;;6.80;;
77010;SDS011;65945;53.148;17.956;2023-03-23T14:46:54;6.80;;;3.50;;
77010;SDS011;65945;53.148;17.956;2023-03-23T14:49:29;10.50;;;4.40;;
77010;SDS011;65945;53.148;17.956;2023-03-23T14:52:02;13.70;;;5.70;;
77010;SDS011;65945;53.148;17.956;2023-03-23T14:54:37;14.20;;;5.70;;
77010;SDS011;65945;53.148;17.956;2023-03-23T14:57:12;8.30;;;3.10;;
77010;SDS011;65945;53.148;17.956;2023-03-23T14:59:46;10.90;;;4.50;;
77010;SDS011;65945;53.148;17.956;2023-03-23T15:02:16;11.00;;;5.10;;
77010;SDS011;65945;53.148;17.956;2023-03-23T15:04:54;7.70;;;3.40;;
77010;SDS011;65945;53.148;17.956;2023-03-23T15:07:30;6.90;;;3.40;;
77010;SDS011;65945;53.148;17.956;2023-03-23T15:10:00;10.50;;;4.30;;
77010;SDS011;65945;53.148;17.956;2023-03-23T15:12:28;7.90;;;3.30;;
77010;SDS011;65945;53.148;17.956;2023-03-23T15:14:58;7.90;;;3.40;;
77010;SDS011;65945;53.148;17.956;2023-03-23T15:17:29;5.20;;;2.90;;
77010;SDS011;65945;53.148;17.956;2023-03-23T15:20:00;4.40;;;2.30;;
77010;SDS011;65945;53.148;17.956;2023-03-23T15:22:35;7.30;;;2.60;;
77010;SDS011;65945;53.148;17.956;2023-03-23T15:25:09;5.20;;;2.20;;
77010;SDS011;65945;53.148;17.956;2023-03-23T15:27:48;9.50;;;3.70;;
77010;SDS011;65945;53.148;17.956;2023-03-23T15:30:35;4.70;;;2.10;;
77010;SDS011;65945;53.148;17.956;2023-03-23T15:33:09;6.80;;;3.40;;
77010;SDS011;65945;53.148;17.956;2023-03-23T15:35:38;7.10;;;3.10;;
77010;SDS011;65945;53.148;17.956;2023-03-23T15:40:48;8.10;;;3.50;;
77010;SDS011;65945;53.148;17.956;2023-03-23T15:43:19;5.70;;;2.90;;
77010;SDS011;65945;53.148;17.956;2023-03-23T15:45:56;7.40;;;3.80;;
77010;SDS011;65945;53.148;17.956;2023-03-23T15:48:26;5.80;;;2.70;;
77010;SDS011;65945;53.148;17.956;2023-03-23T15:50:54;10.00;;;4.30;;
77010;SDS011;65945;53.148;17.956;2023-03-23T15:56:03;14.00;;;7.40;;
77010;SDS011;65945;53.148;17.956;2023-03-23T15:58:31;15.40;;;8.60;;
77010;SDS011;65945;53.148;17.956;2023-03-23T16:00:59;8.80;;;4.30;;
77010;SDS011;65945;53.148;17.956;2023-03-23T16:03:34;11.50;;;6.10;;
77010;SDS011;65945;53.148;17.956;2023-03-23T16:06:05;10.80;;;6.90;;
77010;SDS011;65945;53.148;17.956;2023-03-23T16:08:32;13.50;;;7.30;;
77010;SDS011;65945;53.148;17.956;2023-03-23T16:10:58;10.20;;;5.00;;
77010;SDS011;65945;53.148;17.956;2023-03-23T16:13:25;10.70;;;5.10;;
77010;SDS011;65945;53.148;17.956;2023-03-23T16:15:53;7.10;;;3.10;;
77010;SDS011;65945;53.148;17.956;2023-03-23T16:18:20;8.00;;;3.90;;
77010;SDS011;65945;53.148;17.956;2023-03-23T16:20:47;8.80;;;4.70;;
77010;SDS011;65945;53.148;17.956;2023-03-23T16:23:15;9.20;;;2.80;;
77010;SDS011;65945;53.148;17.956;2023-03-23T16:25:42;7.90;;;3.90;;
77010;SDS011;65945;53.148;17.956;2023-03-23T16:28:12;6.40;;;3.10;;
77010;SDS011;65945;53.148;17.956;2023-03-23T16:30:41;7.50;;;3.30;;
77010;SDS011;65945;53.148;17.956;2023-03-23T16:33:09;7.60;;;3.50;;
77010;SDS011;65945;53.148;17.956;2023-03-23T16:35:36;11.40;;;3.70;;
77010;SDS011;65945;53.148;17.956;2023-03-23T16:38:03;8.70;;;4.20;;
77010;SDS011;65945;53.148;17.956;2023-03-23T16:40:30;15.60;;;9.50;;
77010;SDS011;65945;53.148;17.956;2023-03-23T16:42:58;25.80;;;20.40;;
77010;SDS011;65945;53.148;17.956;2023-03-23T16:45:25;18.10;;;13.20;;
77010;SDS011;65945;53.148;17.956;2023-03-23T16:47:52;18.30;;;15.10;;
77010;SDS011;65945;53.148;17.956;2023-03-23T16:50:21;21.50;;;15.00;;
77010;SDS011;65945;53.148;17.956;2023-03-23T16:52:47;17.40;;;13.20;;
77010;SDS011;65945;53.148;17.956;2023-03-23T16:55:15;18.80;;;12.60;;
77010;SDS011;65945;53.148;17.956;2023-03-23T16:57:42;26.60;;;13.40;;
77010;SDS011;65945;53.148;17.956;2023-03-23T17:00:10;26.90;;;15.00;;
77010;SDS011;65945;53.148;17.956;2023-03-23T17:02:41;21.70;;;14.20;;
77010;SDS011;65945;53.148;17.956;2023-03-23T17:05:11;19.90;;;12.70;;
77010;SDS011;65945;53.148;17.956;2023-03-23T17:07:40;19.70;;;10.00;;
77010;SDS011;65945;53.148;17.956;2023-03-23T17:10:08;12.90;;;8.40;;
77010;SDS011;65945;53.148;17.956;2023-03-23T17:12:35;15.90;;;8.60;;
77010;SDS011;65945;53.148;17.956;2023-03-23T17:15:02;17.80;;;9.20;;